Time;durP1;ratioP1;P1;durP2;ratioP2;P2;SDS_P1;SDS_P2;PMS_P1;PMS_P2;Temp;Humidity;BMP_temperature;BMP_pressure;BME280_temperature;BME280_humidity;BME280_pressure;Samples;Min_cycle;Max_cycle;Signal;HPM_P1;HPM_P2
2022/06/28 00:01:37;;;;;;;2.47;2.00;;;;;;;19.35;100.00;96720.28;5031582;28;20589;-72
2022/06/28 00:04:05;;;;;;;6.47;2.20;;;;;;;19.46;100.00;96723.03;5031343;28;20579;-72
2022/06/28 00:06:31;;;;;;;2.88;1.75;;;;;;;19.40;100.00;96717.75;5031517;28;20214;-72
2022/06/28 00:08:58;;;;;;;6.65;2.13;;;;;;;19.40;100.00;96723.09;5031568;28;20202;-72
2022/06/28 00:11:24;;;;;;;4.10;2.17;;;;;;;19.41;100.00;96732.75;5031722;28;20225;-72
2022/06/28 00:13:51;;;;;;;3.88;2.40;;;;;;;19.38;100.00;96741.22;5031596;28;20217;-72
2022/06/28 00:16:18;;;;;;;6.18;2.30;;;;;;;19.38;100.00;96736.69;5031641;28;20190;-71
2022/06/28 00:18:45;;;;;;;3.72;2.13;;;;;;;19.43;100.00;96730.69;5031397;28;20214;-72
2022/06/28 00:21:13;;;;;;;2.63;1.80;;;;;;;19.60;100.00;96717.38;5030053;28;20204;-72
2022/06/28 00:23:42;;;;;;;5.65;2.00;;;;;;;19.63;100.00;96724.94;5030722;28;20221;-72
2022/06/28 00:26:10;;;;;;;2.88;2.10;;;;;;;19.55;100.00;96720.91;5030621;28;20240;-72
2022/06/28 00:28:37;;;;;;;6.03;2.30;;;;;;;19.46;100.00;96716.88;5030753;28;20232;-73
2022/06/28 00:31:04;;;;;;;4.60;2.10;;;;;;;19.49;100.00;96722.63;5030671;28;20226;-72
2022/06/28 00:33:31;;;;;;;3.65;2.47;;;;;;;19.46;100.00;96722.22;5030490;28;20559;-72
2022/06/28 00:35:57;;;;;;;5.93;2.30;;;;;;;19.39;100.00;96730.31;5030894;28;20197;-72
2022/06/28 00:38:25;;;;;;;2.20;1.80;;;;;;;19.40;100.00;96725.78;5030917;28;20225;-72
2022/06/28 00:40:54;;;;;;;2.13;1.75;;;;;;;19.40;100.00;96731.13;5030714;28;20680;-72
2022/06/28 00:43:22;;;;;;;3.97;1.90;;;;;;;19.26;100.00;96725.09;5030703;28;20202;-72
2022/06/28 00:45:51;;;;;;;5.45;2.17;;;;;;;19.31;100.00;96727.09;5030685;28;20732;-72
2022/06/28 00:48:19;;;;;;;7.30;1.80;;;;;;;19.26;100.00;96738.44;5030502;28;20725;-72
2022/06/28 00:50:46;;;;;;;3.60;2.00;;;;;;;19.27;100.00;96733.91;5030392;28;20205;-73
2022/06/28 00:53:14;;;;;;;3.90;1.95;;;;;;;19.38;100.00;96733.22;5030697;28;20198;-72
2022/06/28 00:55:43;;;;;;;5.63;2.10;;;;;;;19.33;100.00;96735.72;5030475;28;20208;-71
2022/06/28 00:58:10;;;;;;;4.07;2.28;;;;;;;19.26;100.00;96738.44;5030056;28;20229;-72
2022/06/28 01:00:40;;;;;;;9.98;2.08;;;;;;;19.17;100.00;96749.59;5030497;28;20197;-72
2022/06/28 01:03:07;;;;;;;2.53;1.90;;;;;;;19.14;100.00;96745.53;5030275;28;20673;-71
2022/06/28 01:05:35;;;;;;;4.00;2.15;;;;;;;19.09;100.00;96740.03;5029986;28;20588;-72
2022/06/28 01:08:02;;;;;;;3.85;2.17;;;;;;;19.19;100.00;96739.53;5030103;28;20225;-72
2022/06/28 01:10:28;;;;;;;3.35;1.80;;;;;;;19.01;100.00;96742.09;5030090;28;20198;-72
2022/06/28 01:12:56;;;;;;;4.88;2.05;;;;;;;19.18;100.00;96743.22;5030131;28;20248;-72
2022/06/28 01:15:23;;;;;;;8.68;2.10;;;;;;;18.93;100.00;96742.38;5029959;28;20658;-72
2022/06/28 01:17:49;;;;;;;4.72;2.20;;;;;;;19.06;100.00;96742.31;5030153;28;20229;-72
2022/06/28 01:20:16;;;;;;;2.38;2.05;;;;;;;19.19;100.00;96747.53;5029217;28;20197;-72
2022/06/28 01:22:44;;;;;;;3.45;2.20;;;;;;;19.20;100.00;96751.84;5029633;28;20198;-72
2022/06/28 01:25:12;;;;;;;2.45;2.00;;;;;;;19.24;100.00;96755.72;5030206;28;20205;-72
2022/06/28 01:27:40;;;;;;;3.38;1.95;;;;;;;19.37;100.00;96751.06;5029954;28;20721;-72
2022/06/28 01:30:08;;;;;;;8.10;2.33;;;;;;;19.47;100.00;96756.75;5030167;28;20586;-72
2022/06/28 01:32:36;;;;;;;7.32;2.28;;;;;;;19.34;100.00;96748.06;5029111;28;20213;-72
2022/06/28 01:35:03;;;;;;;3.65;2.38;;;;;;;19.33;100.00;96749.06;5029708;28;20201;-72
2022/06/28 01:37:30;;;;;;;4.05;2.28;;;;;;;19.25;100.00;96758.19;5030002;28;20222;-72
2022/06/28 01:39:58;;;;;;;8.98;2.60;;;;;;;19.33;100.00;96757.09;5029706;28;20213;-72
2022/06/28 01:42:25;;;;;;;3.72;1.90;;;;;;;19.18;100.00;96759.25;5029468;28;20194;-72
2022/06/28 01:44:51;;;;;;;11.43;2.30;;;;;;;19.28;100.00;96759.59;5029413;28;20194;-72
2022/06/28 01:47:20;;;;;;;5.45;2.00;;;;;;;19.40;100.00;96772.03;5029585;28;20221;-72
2022/06/28 01:49:48;;;;;;;4.53;2.28;;;;;;;19.36;100.00;96759.31;5029426;28;20209;-72
2022/06/28 01:52:15;;;;;;;4.88;2.30;;;;;;;19.37;100.00;96772.47;5029258;28;20272;-72
2022/06/28 01:54:41;;;;;;;2.90;1.92;;;;;;;19.44;100.00;96762.56;5029091;28;20601;-72
2022/06/28 01:57:10;;;;;;;2.58;2.10;;;;;;;19.53;100.00;96766.59;5029246;28;20222;-72
2022/06/28 01:59:37;;;;;;;8.55;2.50;;;;;;;19.60;100.00;96757.47;5028775;28;20197;-72
2022/06/28 02:02:04;;;;;;;2.50;1.80;;;;;;;19.47;100.00;96759.44;5029056;28;20201;-72
2022/06/28 02:04:31;;;;;;;7.93;2.35;;;;;;;19.42;100.00;96763.81;5027459;28;20201;-72
2022/06/28 02:06:58;;;;;;;6.82;2.47;;;;;;;19.36;100.00;96764.66;5028601;28;20232;-72
2022/06/28 02:09:26;;;;;;;4.20;2.22;;;;;;;19.39;100.00;96764.25;5028734;28;20198;-72
2022/06/28 02:11:54;;;;;;;2.95;2.40;;;;;;;19.44;100.00;96775.09;5028513;28;20222;-72
2022/06/28 02:14:22;;;;;;;6.07;2.22;;;;;;;19.24;100.00;96775.25;5028653;28;20197;-72
2022/06/28 02:16:49;;;;;;;4.88;2.30;;;;;;;19.31;100.00;96781.38;5028464;28;20234;-72
2022/06/28 02:19:15;;;;;;;4.85;2.40;;;;;;;19.33;100.00;96773.94;5027317;28;20205;-72
2022/06/28 02:21:43;;;;;;;5.22;2.10;;;;;;;19.20;100.00;96776.72;5028584;28;20204;-72
2022/06/28 02:24:11;;;;;;;6.75;2.45;;;;;;;19.40;100.00;96781.91;5028117;28;20212;-72
2022/06/28 02:26:38;;;;;;;6.72;2.72;;;;;;;19.37;100.00;96787.69;5028825;28;20231;-72
2022/06/28 02:29:06;;;;;;;4.70;2.55;;;;;;;19.44;100.00;96794.63;5028420;28;21281;-72
2022/06/28 02:31:36;;;;;;;5.18;2.95;;;;;;;19.48;100.00;96790.47;5028389;28;20320;-72
2022/06/28 02:34:03;;;;;;;7.38;2.97;;;;;;;19.46;100.00;96789.06;5028212;28;20201;-72
2022/06/28 02:41:58;;;;;;;5.95;3.55;;;;;;;19.41;100.00;96789.72;5028345;28;20205;-72
2022/06/28 02:44:24;;;;;;;12.00;3.65;;;;;;;19.26;100.00;96788.41;5028628;28;20289;-72
2022/06/28 02:46:52;;;;;;;10.68;3.78;;;;;;;19.38;100.00;96790.16;5028190;28;20225;-72
2022/06/28 02:49:19;;;;;;;5.32;3.72;;;;;;;19.36;100.00;96794.06;5028116;28;20288;-72
2022/06/28 02:51:45;;;;;;;5.65;3.45;;;;;;;19.34;100.00;96793.47;5028132;28;20719;-72
2022/06/28 02:54:12;;;;;;;10.57;4.18;;;;;;;19.28;100.00;96789.00;5028155;28;20201;-72
2022/06/28 02:56:40;;;;;;;8.23;3.70;;;;;;;19.28;100.00;96787.13;5028083;28;20731;-72
2022/06/28 02:59:06;;;;;;;11.25;3.75;;;;;;;19.29;100.00;96801.34;5028249;28;20731;-72
2022/06/28 03:01:33;;;;;;;14.10;4.10;;;;;;;19.32;100.00;96795.53;5028021;28;20209;-72
2022/06/28 03:04:01;;;;;;;10.23;4.20;;;;;;;19.51;100.00;96800.72;5028077;28;20201;-72
2022/06/28 03:06:27;;;;;;;8.98;3.53;;;;;;;19.40;100.00;96804.13;5028367;28;20202;-72
2022/06/28 03:08:54;;;;;;;18.77;5.88;;;;;;;19.45;100.00;96806.97;5028133;28;20209;-72
2022/06/28 03:11:20;;;;;;;10.77;4.20;;;;;;;19.32;100.00;96800.88;5028194;28;20206;-72
2022/06/28 03:13:47;;;;;;;10.98;4.55;;;;;;;19.20;100.00;96803.44;5027689;28;20210;-71
2022/06/28 03:16:13;;;;;;;8.15;4.20;;;;;;;19.34;100.00;96798.81;5027798;28;20198;-72
2022/06/28 03:18:41;;;;;;;7.03;3.88;;;;;;;19.16;100.00;96801.44;5029622;28;21067;-73
2022/06/28 03:21:10;;;;;;;7.78;3.92;;;;;;;19.33;100.00;96800.66;5028982;28;20201;-73
2022/06/28 03:23:38;;;;;;;6.85;3.92;;;;;;;19.40;100.00;96793.44;5029243;28;20198;-73
2022/06/28 03:26:06;;;;;;;8.35;3.40;;;;;;;19.52;100.00;96805.03;5029713;28;20209;-73
2022/06/28 03:28:33;;;;;;;5.65;3.70;;;;;;;19.44;100.00;96799.97;5029284;28;20221;-73
2022/06/28 03:31:01;;;;;;;6.10;3.88;;;;;;;19.53;100.00;96798.66;5030108;28;20214;-73
2022/06/28 03:33:29;;;;;;;8.20;4.00;;;;;;;19.39;100.00;96799.00;5032488;28;20614;-73
2022/06/28 03:35:56;;;;;;;11.73;4.10;;;;;;;19.32;100.00;96804.41;5032293;28;20210;-73
2022/06/28 03:38:25;;;;;;;9.77;4.65;;;;;;;19.42;100.00;96795.88;5032921;28;20221;-73
2022/06/28 03:40:53;;;;;;;10.48;4.22;;;;;;;19.37;100.00;96801.06;5032338;28;20252;-73
2022/06/28 03:43:21;;;;;;;7.90;4.93;;;;;;;19.26;100.00;96804.44;5031856;28;20696;-73
2022/06/28 03:45:48;;;;;;;9.07;4.63;;;;;;;19.02;100.00;96799.84;5032912;28;20279;-73
2022/06/28 03:48:16;;;;;;;12.48;5.78;;;;;;;18.96;100.00;96795.34;5032233;28;20221;-73
2022/06/28 03:50:43;;;;;;;9.57;4.82;;;;;;;19.10;100.00;96796.94;5032393;28;20642;-73
2022/06/28 03:53:11;;;;;;;8.23;5.07;;;;;;;19.07;100.00;96792.03;5032118;28;20315;-73
2022/06/28 03:55:40;;;;;;;11.68;5.25;;;;;;;19.30;100.00;96786.94;5032874;28;20289;-73
2022/06/28 03:58:08;;;;;;;7.50;4.88;;;;;;;19.28;100.00;96787.13;5032140;28;20233;-73
2022/06/28 04:00:35;;;;;;;10.88;5.60;;;;;;;19.17;100.00;96793.19;5032142;28;20777;-73
2022/06/28 04:03:03;;;;;;;8.43;5.07;;;;;;;19.31;100.00;96788.56;5032184;28;20541;-73
2022/06/28 04:05:30;;;;;;;9.40;5.13;;;;;;;19.35;100.00;96793.25;5030611;28;20297;-72
2022/06/28 04:07:56;;;;;;;10.80;5.38;;;;;;;19.44;100.00;96788.47;5030673;28;21216;-72
2022/06/28 04:10:23;;;;;;;11.65;5.70;;;;;;;19.33;100.00;96791.84;5031068;28;20202;-72
2022/06/28 04:12:50;;;;;;;7.72;4.63;;;;;;;19.36;100.00;96776.19;5030588;28;20225;-72
2022/06/28 04:15:17;;;;;;;9.10;5.15;;;;;;;19.31;100.00;96783.22;5031208;28;20209;-72
2022/06/28 04:17:44;;;;;;;8.20;5.70;;;;;;;19.40;100.00;96776.56;5030149;28;20226;-72
2022/06/28 04:20:12;;;;;;;7.55;4.45;;;;;;;19.37;100.00;96772.47;5031059;28;20249;-72
2022/06/28 04:22:39;;;;;;;12.10;4.85;;;;;;;19.29;100.00;96771.94;5030668;28;20544;-73
2022/06/28 04:25:06;;;;;;;8.48;5.38;;;;;;;19.35;100.00;96760.38;5030661;28;20220;-74
2022/06/28 04:27:32;;;;;;;13.38;5.20;;;;;;;19.24;100.00;96767.22;5030801;28;20230;-74
2022/06/28 04:30:00;;;;;;;7.15;4.88;;;;;;;19.32;100.00;96768.81;5030595;28;20202;-74
2022/06/28 04:32:27;;;;;;;9.38;5.07;;;;;;;19.28;100.00;96768.41;5030506;28;20232;-74
2022/06/28 04:34:54;;;;;;;9.93;5.10;;;;;;;19.26;100.00;96764.38;5030572;28;20685;-74
2022/06/28 04:37:20;;;;;;;7.30;4.70;;;;;;;19.13;100.00;96775.13;5030209;28;20222;-74
2022/06/28 04:39:47;;;;;;;8.93;4.50;;;;;;;19.20;100.00;96778.59;5030850;28;20212;-74
2022/06/28 04:42:14;;;;;;;6.38;4.57;;;;;;;19.32;100.00;96779.50;5030020;28;20198;-74
2022/06/28 04:44:41;;;;;;;8.60;4.82;;;;;;;19.50;100.00;96779.56;5030634;28;20202;-74
2022/06/28 04:47:09;;;;;;;10.95;4.95;;;;;;;19.71;100.00;96780.00;5030296;28;20230;-74
2022/06/28 04:49:36;;;;;;;9.23;4.50;;;;;;;19.64;100.00;96777.38;5030611;28;20633;-74
2022/06/28 04:52:03;;;;;;;6.45;4.40;;;;;;;19.70;100.00;96779.19;5030333;28;20202;-74
2022/06/28 04:54:30;;;;;;;9.85;4.80;;;;;;;19.88;100.00;96775.69;5030265;28;20543;-75
2022/06/28 04:56:56;;;;;;;10.82;5.05;;;;;;;19.95;100.00;96774.63;5030477;28;20222;-74
2022/06/28 04:59:23;;;;;;;12.57;4.57;;;;;;;19.96;100.00;96775.44;5030142;28;20703;-74
2022/06/28 05:01:49;;;;;;;10.95;4.68;;;;;;;20.13;100.00;96761.25;5030014;28;20205;-74
2022/06/28 05:04:17;;;;;;;12.10;4.97;;;;;;;20.44;100.00;96763.75;5029871;28;20607;-74
2022/06/28 05:06:44;;;;;;;8.65;3.70;;;;;;;20.46;100.00;96764.38;5029705;28;20237;-74
2022/06/28 05:09:10;;;;;;;5.72;3.80;;;;;;;20.61;100.00;96762.94;5029938;28;20288;-74
2022/06/28 05:11:37;;;;;;;3.70;2.63;;;;;;;20.82;98.76;96756.28;5029780;28;20579;-75
2022/06/28 05:14:04;;;;;;;7.05;3.15;;;;;;;20.85;96.42;96754.78;5029491;28;20713;-74
2022/06/28 05:16:31;;;;;;;9.82;3.15;;;;;;;21.02;96.94;96763.00;5029670;28;20713;-74
2022/06/28 05:18:57;;;;;;;4.35;2.90;;;;;;;21.12;96.18;96761.38;5029930;28;20204;-74
2022/06/28 05:21:25;;;;;;;6.88;3.33;;;;;;;21.08;95.14;96770.94;5029678;28;20206;-74
2022/06/28 05:23:52;;;;;;;4.78;2.80;;;;;;;21.02;94.16;96761.13;5029473;28;20190;-74
2022/06/28 05:26:19;;;;;;;7.55;2.65;;;;;;;21.04;93.25;96759.03;5029640;28;20662;-74
2022/06/28 05:28:45;;;;;;;4.90;2.70;;;;;;;21.11;92.72;96751.72;5029477;28;20855;-74
2022/06/28 05:31:12;;;;;;;3.97;2.63;;;;;;;21.30;91.58;96742.53;5029639;28;20204;-75
2022/06/28 05:33:38;;;;;;;4.40;2.60;;;;;;;21.42;92.54;96730.78;5029049;28;20217;-75
2022/06/28 05:36:05;;;;;;;8.75;3.03;;;;;;;21.33;90.76;96727.84;5029470;28;20197;-75
2022/06/28 05:38:33;;;;;;;5.72;2.78;;;;;;;20.95;91.83;96714.88;5029571;28;20222;-74
2022/06/28 05:41:00;;;;;;;5.95;3.40;;;;;;;20.42;95.94;96720.34;5029406;28;20201;-74
2022/06/28 05:43:26;;;;;;;5.47;3.00;;;;;;;20.32;97.46;96723.53;5029016;28;20197;-74
2022/06/28 05:45:53;;;;;;;4.07;2.92;;;;;;;20.31;95.17;96723.78;5029298;28;20224;-74
2022/06/28 05:48:19;;;;;;;4.50;2.65;;;;;;;20.70;95.98;96709.88;5029030;28;20224;-74
2022/06/28 05:50:47;;;;;;;4.25;2.50;;;;;;;20.90;94.43;96703.19;5029487;28;20232;-74
2022/06/28 05:53:14;;;;;;;5.18;3.03;;;;;;;21.11;93.37;96708.81;5028177;28;20222;-75
2022/06/28 05:55:42;;;;;;;4.40;2.60;;;;;;;21.16;93.69;96711.63;5029268;28;20208;-75
2022/06/28 05:58:08;;;;;;;10.32;3.55;;;;;;;21.18;94.13;96720.28;5028954;28;20236;-75
2022/06/28 06:00:37;;;;;;;4.15;2.75;;;;;;;21.11;93.94;96727.59;5029163;28;20202;-74
2022/06/28 06:03:04;;;;;;;3.85;2.47;;;;;;;21.09;94.71;96737.75;5028749;28;20297;-74
2022/06/28 06:05:30;;;;;;;3.90;2.30;;;;;;;21.18;91.19;96733.69;5029177;28;20198;-74
2022/06/28 06:07:57;;;;;;;7.18;3.42;;;;;;;21.14;93.91;96723.63;5028931;28;20902;-74
2022/06/28 06:10:23;;;;;;;3.50;2.20;;;;;;;21.15;94.15;96726.06;5029001;28;20697;-75
2022/06/28 06:12:51;;;;;;;6.18;3.45;;;;;;;21.36;92.10;96722.03;5028518;28;20217;-74
2022/06/28 06:15:18;;;;;;;8.18;2.92;;;;;;;21.42;92.07;96719.22;5028835;28;20208;-74
2022/06/28 06:17:44;;;;;;;5.85;2.88;;;;;;;21.18;91.84;96722.13;5028544;28;20245;-74
2022/06/28 06:20:11;;;;;;;4.13;2.75;;;;;;;21.65;90.43;96711.22;5028915;28;20233;-74
2022/06/28 06:22:38;;;;;;;3.38;2.17;;;;;;;21.79;89.43;96699.19;5028460;28;20197;-75
2022/06/28 06:25:06;;;;;;;5.25;2.80;;;;;;;21.97;88.36;96707.94;5028750;28;20576;-74
2022/06/28 06:27:32;;;;;;;7.47;3.00;;;;;;;21.75;89.80;96714.94;5028389;28;20220;-74
2022/06/28 06:30:00;;;;;;;5.65;3.33;;;;;;;21.78;90.33;96724.38;5028395;28;20202;-74
2022/06/28 06:32:27;;;;;;;4.75;3.17;;;;;;;21.80;88.78;96744.56;5027781;28;20202;-74
2022/06/28 06:34:54;;;;;;;5.05;3.08;;;;;;;22.09;87.58;96749.00;5026660;28;20193;-74
2022/06/28 06:37:20;;;;;;;3.70;2.75;;;;;;;22.09;86.30;96765.91;5028242;28;20763;-74
2022/06/28 06:39:47;;;;;;;4.10;3.17;;;;;;;22.03;87.00;96755.28;5028320;28;20220;-74
2022/06/28 06:42:13;;;;;;;4.90;3.08;;;;;;;21.94;84.35;96754.00;5028234;28;20252;-74
2022/06/28 06:44:40;;;;;;;6.88;3.20;;;;;;;21.97;88.72;96755.41;5027935;28;20216;-74
2022/06/28 06:47:08;;;;;;;4.38;3.17;;;;;;;22.22;86.13;96765.69;5027726;28;20229;-76
2022/06/28 06:49:34;;;;;;;9.63;3.08;;;;;;;22.43;87.13;96773.13;5015971;28;20205;-78
2022/06/28 06:52:01;;;;;;;4.43;3.60;;;;;;;22.25;85.69;96770.56;5020012;28;20198;-76
2022/06/28 06:54:27;;;;;;;6.32;3.80;;;;;;;22.37;85.97;96768.69;5028016;28;20233;-76
2022/06/28 06:56:54;;;;;;;9.90;3.28;;;;;;;22.11;86.13;96773.75;5028153;28;20222;-76
2022/06/28 06:59:20;;;;;;;4.85;3.30;;;;;;;22.24;84.51;96773.50;5030103;28;20532;-76
2022/06/28 07:01:48;;;;;;;4.03;2.90;;;;;;;22.20;83.73;96775.81;5028451;28;20224;-77
2022/06/28 07:04:16;;;;;;;4.75;2.90;;;;;;;22.04;84.13;96778.41;5028235;28;20202;-76
2022/06/28 07:06:43;;;;;;;5.25;3.30;;;;;;;21.79;87.41;96785.91;5032174;28;20236;-76
2022/06/28 07:09:10;;;;;;;8.07;4.13;;;;;;;21.35;89.41;96769.47;5032007;28;20201;-77
2022/06/28 07:11:36;;;;;;;4.63;3.30;;;;;;;21.09;87.44;96764.53;5031633;28;20229;-76
2022/06/28 07:14:03;;;;;;;5.60;3.20;;;;;;;20.84;86.97;96771.09;5031796;28;20232;-76
2022/06/28 07:16:30;;;;;;;5.55;3.67;;;;;;;20.63;91.01;96766.19;5031613;28;21025;-75
2022/06/28 07:18:57;;;;;;;7.47;3.72;;;;;;;20.78;89.82;96749.75;5022638;28;20202;-75
2022/06/28 07:21:25;;;;;;;5.40;3.47;;;;;;;20.93;91.95;96743.75;5019515;28;20216;-75
2022/06/28 07:23:51;;;;;;;4.45;3.50;;;;;;;20.60;90.71;96757.81;5031151;28;20421;-75
2022/06/28 07:26:18;;;;;;;6.20;3.80;;;;;;;20.48;90.68;96763.09;5032533;28;20201;-75
2022/06/28 07:28:45;;;;;;;5.75;3.40;;;;;;;20.60;93.24;96749.78;5034017;28;20252;-75
2022/06/28 07:31:12;;;;;;;6.00;3.95;;;;;;;20.76;93.01;96743.78;5033338;28;20674;-75
2022/06/28 07:33:38;;;;;;;6.15;4.00;;;;;;;20.76;94.67;96738.44;5033213;28;20240;-75
2022/06/28 07:36:05;;;;;;;5.72;3.55;;;;;;;20.69;95.07;96738.50;5033677;28;20194;-76
2022/06/28 07:38:33;;;;;;;6.70;3.22;;;;;;;20.83;94.01;96732.75;5032949;28;20740;-75
2022/06/28 07:41:00;;;;;;;4.88;2.90;;;;;;;20.71;91.36;96728.38;5032303;28;20657;-75
2022/06/28 07:43:26;;;;;;;4.55;3.10;;;;;;;20.74;93.05;96727.94;5033095;28;20669;-75
2022/06/28 07:45:53;;;;;;;8.20;4.10;;;;;;;20.60;94.09;96717.63;5032220;28;21140;-75
2022/06/28 07:48:20;;;;;;;6.10;2.75;;;;;;;20.57;96.57;96680.56;5027617;28;20245;-75
2022/06/28 07:53:31;;;;;;;5.38;3.28;;;;;;;20.25;97.68;96687.19;5028828;28;20291;-75
2022/06/28 07:55:59;;;;;;;6.25;4.20;;;;;;;20.36;98.17;96687.25;5031698;28;20209;-75
2022/06/28 07:58:26;;;;;;;6.30;3.95;;;;;;;20.10;99.13;96716.22;5032320;28;20217;-75
2022/06/28 08:00:52;;;;;;;6.20;4.57;;;;;;;20.21;100.00;96723.47;5032411;28;20198;-75
2022/06/28 08:03:19;;;;;;;5.78;4.20;;;;;;;20.11;100.00;96669.69;5031656;28;20206;-76
2022/06/28 08:05:45;;;;;;;12.63;4.90;;;;;;;20.14;100.00;96647.81;5031195;28;20674;-76
2022/06/28 08:08:12;;;;;;;6.00;4.50;;;;;;;20.13;100.00;96677.50;5031296;28;20228;-76
2022/06/28 08:10:38;;;;;;;6.18;4.40;;;;;;;19.99;100.00;96659.97;5030895;28;20666;-76
2022/06/28 08:13:06;;;;;;;5.97;4.53;;;;;;;19.82;100.00;96618.78;5030563;28;20213;-75
2022/06/28 08:15:33;;;;;;;7.55;4.88;;;;;;;19.40;100.00;96571.59;5030484;28;20201;-76
2022/06/28 08:17:59;;;;;;;10.50;5.35;;;;;;;19.41;100.00;96572.38;5030367;28;20229;-75
2022/06/28 08:20:31;;;;;;;9.05;5.90;;;;;;;19.55;100.00;96601.41;5030897;28;20214;-75
2022/06/28 08:22:57;;;;;;;9.23;6.10;;;;;;;19.81;100.00;96623.31;5030816;28;20198;-75
2022/06/28 08:25:24;;;;;;;9.07;5.70;;;;;;;20.38;100.00;96618.25;5030791;28;20198;-75
2022/06/28 08:27:50;;;;;;;9.93;5.53;;;;;;;20.80;100.00;96611.84;5030979;28;20236;-75
2022/06/28 08:30:18;;;;;;;7.70;5.45;;;;;;;21.04;100.00;96602.78;5031101;28;20194;-75
2022/06/28 08:32:45;;;;;;;7.78;5.25;;;;;;;21.22;100.00;96599.97;5030221;28;20218;-75
2022/06/28 08:35:12;;;;;;;8.73;4.63;;;;;;;21.22;100.00;96605.34;5030922;28;20268;-75
2022/06/28 08:37:38;;;;;;;5.38;3.50;;;;;;;21.25;97.83;96616.41;5030767;28;20217;-75
2022/06/28 08:40:06;;;;;;;6.45;4.22;;;;;;;21.48;98.21;96627.13;5030868;28;20264;-75
2022/06/28 08:42:36;;;;;;;6.50;3.80;;;;;;;21.40;92.44;96635.53;5030410;28;20198;-75
2022/06/28 08:45:04;;;;;;;7.05;3.88;;;;;;;21.51;96.58;96632.03;5030636;28;20202;-75
2022/06/28 08:47:34;;;;;;;6.25;4.05;;;;;;;21.62;95.84;96637.41;5029904;28;20226;-74
2022/06/28 08:50:05;;;;;;;5.53;3.90;;;;;;;21.91;93.17;96627.56;5030514;28;20667;-75
2022/06/28 08:52:34;;;;;;;4.15;3.20;;;;;;;22.15;94.66;96640.66;5029537;28;20190;-75
2022/06/28 08:55:01;;;;;;;4.68;3.17;;;;;;;22.02;90.82;96643.63;5029705;28;20226;-75
2022/06/28 08:57:30;;;;;;;4.88;2.80;;;;;;;22.38;90.88;96652.16;5029225;28;20629;-75
2022/06/28 08:59:58;;;;;;;4.30;2.40;;;;;;;22.69;90.37;96654.34;5029899;28;20198;-75
2022/06/28 09:02:25;;;;;;;4.85;3.30;;;;;;;22.39;85.59;96658.34;5030207;28;20197;-74
2022/06/28 09:04:53;;;;;;;6.88;3.53;;;;;;;22.24;84.54;96650.78;5030176;28;20198;-75
2022/06/28 09:07:20;;;;;;;7.45;3.58;;;;;;;22.14;86.70;96639.84;5029934;28;20218;-74
2022/06/28 09:09:47;;;;;;;7.03;3.72;;;;;;;22.12;88.60;96635.75;5028656;28;20210;-75
2022/06/28 09:12:14;;;;;;;5.75;3.72;;;;;;;22.32;91.48;96631.63;5030220;28;20558;-76
2022/06/28 09:14:41;;;;;;;6.45;3.88;;;;;;;22.44;88.99;96636.94;5029359;28;20901;-75
2022/06/28 09:19:38;;;;;;;7.25;3.40;;;;;;;22.75;86.76;96637.25;5038074;28;20287;-71
2022/06/28 09:22:06;;;;;;;5.18;3.65;;;;;;;23.04;86.10;96637.00;5036621;28;20198;-71
2022/06/28 09:24:34;;;;;;;4.72;3.22;;;;;;;22.88;81.15;96627.00;5037563;28;20579;-71
2022/06/28 09:27:03;;;;;;;4.47;2.72;;;;;;;22.75;82.92;96637.25;5040913;28;20216;-71
2022/06/28 09:29:30;;;;;;;4.93;3.13;;;;;;;22.82;83.42;96643.28;5037308;28;21028;-71
2022/06/28 09:31:57;;;;;;;5.25;3.30;;;;;;;22.79;83.79;96636.53;5037424;28;20205;-71
2022/06/28 09:34:23;;;;;;;4.47;3.47;;;;;;;22.92;83.39;96636.19;5037216;28;20240;-71
2022/06/28 09:36:55;;;;;;;5.47;3.10;;;;;;;23.29;82.43;96639.25;5039892;28;20208;-71
2022/06/28 09:39:27;;;;;;;4.03;3.15;;;;;;;23.34;82.20;96649.03;5040461;28;21242;-71
2022/06/28 09:41:56;;;;;;;6.32;3.05;;;;;;;23.65;80.11;96648.41;5036457;28;20661;-71
2022/06/28 09:44:25;;;;;;;7.80;3.33;;;;;;;23.59;77.21;96649.41;5034722;28;20202;-69
2022/06/28 09:46:52;;;;;;;4.55;2.97;;;;;;;23.14;80.08;96663.22;5045816;28;20302;-71
2022/06/28 09:49:19;;;;;;;4.32;2.60;;;;;;;23.55;77.69;96655.53;5040360;28;20213;-71
2022/06/28 09:51:46;;;;;;;4.05;2.67;;;;;;;23.70;75.94;96653.91;5033014;28;20214;-71
2022/06/28 09:54:13;;;;;;;3.55;2.65;;;;;;;23.88;76.39;96650.91;5039818;28;20232;-71
2022/06/28 09:56:43;;;;;;;4.78;2.70;;;;;;;23.83;74.86;96647.31;5036447;28;20209;-70
2022/06/28 09:59:11;;;;;;;3.67;2.70;;;;;;;23.68;76.13;96647.91;5040603;28;20595;-71
2022/06/28 10:01:38;;;;;;;4.53;2.50;;;;;;;23.78;76.06;96648.09;5038146;28;20648;-71
2022/06/28 10:04:05;;;;;;;2.58;2.10;;;;;;;23.80;78.37;96643.25;5040049;28;20193;-71
2022/06/28 10:06:32;;;;;;;3.83;2.40;;;;;;;23.50;76.21;96642.81;5039335;28;20676;-71
2022/06/28 10:08:59;;;;;;;3.00;2.40;;;;;;;23.56;78.36;96632.94;5036048;28;20222;-71
2022/06/28 10:15:00;;;;;;;5.68;2.72;;;;;;;23.30;74.78;96633.63;5036796;28;20198;-71
2022/06/28 10:17:10;;;;;;;4.65;2.30;;;;;;;23.43;79.84;96623.34;5009994;28;20202;-71
2022/06/28 10:19:37;;;;;;;3.53;2.95;;;;;;;23.57;75.54;96616.53;5036982;28;20275;-71
2022/06/28 10:22:10;;;;;;;3.90;2.72;;;;;;;23.63;73.87;96610.16;5036703;28;20233;-71
2022/06/28 10:24:54;;;;;;;3.42;2.38;;;;;;;23.20;78.50;96608.47;5036912;28;20194;-69
2022/06/28 10:27:21;;;;;;;5.18;2.78;;;;;;;23.00;78.51;96613.50;5036869;28;20213;-70
2022/06/28 10:30:27;;;;;;;6.65;3.40;;;;;;;23.07;77.83;96614.19;5039266;28;20201;-71
2022/06/28 10:32:56;;;;;;;6.50;2.97;;;;;;;23.17;78.41;96614.34;5036142;28;20204;-71
2022/06/28 10:35:52;;;;;;;6.85;2.58;;;;;;;23.29;75.18;96609.69;5036456;28;20750;-71
2022/06/28 10:38:19;;;;;;;3.60;2.70;;;;;;;22.66;73.70;96600.28;5036243;28;20312;-71
2022/06/28 10:40:49;;;;;;;3.70;2.20;;;;;;;22.94;75.33;96603.72;5044160;28;20225;-71
2022/06/28 10:43:16;;;;;;;3.63;2.33;;;;;;;22.83;78.41;96591.16;5045972;28;20204;-71
2022/06/28 10:46:07;;;;;;;3.17;2.38;;;;;;;23.41;75.77;96590.50;5044634;28;20201;-69
2022/06/28 10:49:10;;;;;;;5.32;3.30;;;;;;;23.21;75.90;96588.59;5043172;28;20225;-69
2022/06/28 10:51:42;;;;;;;7.18;3.15;;;;;;;23.39;76.12;96581.03;5045280;28;20196;-70
2022/06/28 10:54:11;;;;;;;3.65;2.78;;;;;;;23.49;74.44;96576.59;5042503;28;20635;-71
2022/06/28 10:56:40;;;;;;;6.82;2.50;;;;;;;23.51;74.29;96569.13;5044049;28;20213;-72
2022/06/28 10:59:09;;;;;;;3.90;2.85;;;;;;;23.56;76.38;96566.50;5046619;28;20224;-70
2022/06/28 11:01:59;;;;;;;5.32;2.53;;;;;;;23.67;73.62;96560.16;5045304;28;20232;-70
2022/06/28 11:04:30;;;;;;;3.90;2.60;;;;;;;23.39;74.25;96575.66;5050134;28;20235;-70
2022/06/28 11:07:06;;;;;;;5.35;2.92;;;;;;;23.57;71.79;96568.09;5043178;28;20225;-71
2022/06/28 11:10:11;;;;;;;3.28;2.42;;;;;;;23.71;71.74;96563.22;5049594;28;20201;-71
2022/06/28 11:12:40;;;;;;;2.92;2.47;;;;;;;23.46;75.79;96549.41;4963093;28;20200;-71
2022/06/28 11:15:08;;;;;;;3.40;2.60;;;;;;;23.57;74.85;96551.94;5035423;28;20245;-70
2022/06/28 11:17:39;;;;;;;5.47;2.65;;;;;;;23.78;75.22;96555.75;5043239;28;20222;-70
2022/06/28 11:20:07;;;;;;;4.57;2.70;;;;;;;23.77;73.01;96549.56;5046412;28;20205;-71
2022/06/28 11:22:38;;;;;;;2.97;2.17;;;;;;;24.01;72.17;96542.84;5044817;28;20200;-70
2022/06/28 11:25:07;;;;;;;4.55;2.65;;;;;;;23.83;71.72;96550.41;5041995;28;20194;-69
2022/06/28 11:27:34;;;;;;;4.15;2.67;;;;;;;23.77;71.63;96546.88;5040813;28;20596;-70
2022/06/28 11:30:06;;;;;;;6.68;2.70;;;;;;;23.82;74.55;96546.13;5044584;28;20200;-71
2022/06/28 11:32:36;;;;;;;3.58;2.70;;;;;;;24.23;76.61;96549.00;5045148;28;20197;-71
2022/06/28 11:35:06;;;;;;;5.00;2.45;;;;;;;24.25;72.56;96555.75;5041697;28;20221;-71
2022/06/28 11:37:34;;;;;;;3.30;2.50;;;;;;;24.10;71.29;96544.03;5042740;28;20220;-71
2022/06/28 11:40:03;;;;;;;6.15;2.70;;;;;;;23.85;72.01;96543.72;5044457;28;20692;-71
2022/06/28 11:42:30;;;;;;;3.65;2.50;;;;;;;23.60;71.92;96551.47;5043132;28;20205;-70
2022/06/28 11:44:57;;;;;;;4.22;2.50;;;;;;;23.56;71.84;96562.97;5044779;28;20198;-71
2022/06/28 11:47:24;;;;;;;3.88;2.47;;;;;;;23.68;71.42;96552.91;5042710;28;20224;-71